.
WxDataArchive / Data Records for 2007-05-05
2007-05-04 May 2007 2007-05-06

Data Records for Saturday, 05 May 2007

Time	Temp	Chill	HIndex	Humid	Dewpt	 Wind 	HiWind	WindDir	Rain 	Barom 
-----	----	-----	------	-----	-----	------	------	-------	-----	----- 
00:00	55.4	55.4	55.4	48	36.0	1	4	90	0.00	30.004 
00:05	55.4	55.4	55.4	48	36.0	1	3	90	0.00	30.003 
00:10	55.4	55.4	55.4	48	36.0	1	4	90	0.00	30.001 
00:15	55.4	55.4	55.4	47	35.5	1	3	90	0.00	29.999 
00:20	55.4	55.4	55.4	48	36.0	1	4	112	0.00	29.998 
00:25	55.4	55.4	55.4	47	35.5	1	5	90	0.00	29.997 
00:30	55.4	55.4	55.4	47	35.5	1	2	90	0.00	29.996 
00:35	55.4	55.4	55.4	48	36.0	1	3	90	0.00	29.997 
00:40	55.6	55.6	55.6	46	35.2	1	4	68	0.00	29.997 
00:45	55.6	55.6	55.6	46	35.2	1	5	112	0.00	29.992 
00:50	55.6	55.6	55.6	46	35.2	1	5	112	0.00	29.992 
00:55	55.6	55.6	55.6	46	35.2	1	3	112	0.00	29.992 
01:00	55.6	55.6	55.6	46	35.2	1	4	112	0.00	29.992 
01:05	55.7	55.7	55.7	46	35.2	2	5	112	0.00	29.988 
01:10	55.7	55.7	55.7	47	35.8	1	3	90	0.00	29.987 
01:15	55.7	55.7	55.7	45	34.7	2	4	68	0.00	29.986 
01:20	55.6	55.6	55.6	46	35.2	1	6	112	0.00	29.983 
01:25	55.6	55.6	55.6	46	35.2	1	6	90	0.00	29.981 
01:30	55.6	55.6	55.6	46	35.2	1	5	45	0.00	29.977 
01:35	55.6	55.6	55.6	47	35.7	1	5	45	0.00	29.976 
01:40	55.6	55.6	55.6	47	35.7	1	4	90	0.00	29.976 
01:45	55.6	55.6	55.6	46	35.2	1	4	112	0.00	29.975 
01:50	55.4	55.4	55.4	47	35.5	1	3	135	0.00	29.976 
01:55	55.4	55.4	55.4	48	36.0	1	4	90	0.00	29.976 
02:00	55.4	55.4	55.4	47	35.5	1	5	90	0.00	29.975 
02:05	55.3	55.3	55.3	47	35.4	2	9	90	0.00	29.975 
02:10	55.3	55.3	55.3	48	35.9	1	3	90	0.00	29.975 
02:15	55.3	55.3	55.3	49	36.5	1	2	90	0.00	29.974 
02:20	55.3	55.3	55.3	48	35.9	1	4	90	0.00	29.974 
02:25	55.3	55.3	55.3	49	36.5	1	4	112	0.00	29.974 
02:30	55.3	55.3	55.3	49	36.5	1	4	68	0.00	29.971 
02:35	55.3	55.3	55.3	49	36.5	1	4	90	0.00	29.969 
02:40	55.3	55.3	55.3	49	36.5	2	4	45	0.00	29.971 
02:45	55.4	55.4	55.4	49	36.6	2	5	112	0.00	29.972 
02:50	55.4	55.4	55.4	49	36.6	2	5	112	0.00	29.973 
02:55	55.4	55.4	55.4	50	37.1	1	3	112	0.00	29.973 
03:00	55.3	55.3	55.3	49	36.5	1	5	112	0.00	29.971 
03:05	55.3	55.3	55.3	48	35.9	3	8	112	0.00	29.970 
03:10	55.3	55.3	55.3	49	36.5	2	6	112	0.00	29.970 
03:15	55.3	55.3	55.3	49	36.5	2	6	112	0.00	29.967 
03:20	55.3	55.3	55.3	49	36.5	2	5	112	0.00	29.968 
03:25	55.1	55.1	55.1	50	36.8	2	5	90	0.00	29.969 
03:30	55.1	55.1	55.1	50	36.8	2	6	112	0.00	29.969 
03:35	55.1	55.1	55.1	50	36.8	2	6	112	0.00	29.966 
03:40	55.1	55.1	55.1	51	37.3	1	3	112	0.00	29.967 
03:45	55.1	55.1	55.1	50	36.8	2	4	112	0.00	29.968 
03:50	55.1	55.1	55.1	50	36.8	2	4	90	0.00	29.967 
03:55	55.1	55.1	55.1	50	36.8	2	6	112	0.00	29.966 
04:00	55.1	55.1	55.1	51	37.3	2	5	112	0.00	29.966 
04:05	55.1	55.1	55.1	50	36.8	2	6	112	0.00	29.970 
04:10	55.3	55.3	55.3	50	37.0	3	6	90	0.00	29.969 
04:15	55.1	55.1	55.1	51	37.3	1	5	112	0.00	29.968 
04:20	55.3	55.3	55.3	52	38.0	2	6	112	0.00	29.968 
04:25	55.1	55.1	55.1	52	37.8	1	5	112	0.00	29.964 
04:30	55.1	55.1	55.1	52	37.8	3	5	90	0.00	29.964 
04:35	55.1	55.1	55.1	52	37.8	2	5	112	0.00	29.964 
04:40	55.1	55.1	55.1	52	37.8	2	6	90	0.00	29.963 
04:45	55.0	55.0	55.0	53	38.2	2	5	90	0.00	29.963 
04:50	54.8	54.8	54.8	52	37.5	3	6	90	0.00	29.963 
04:55	54.7	54.7	54.7	53	37.9	2	5	90	0.00	29.962 
05:00	54.7	54.7	54.7	54	38.4	2	5	112	0.00	29.962 
05:05	54.5	54.5	54.5	54	38.2	2	6	112	0.00	29.964 
05:10	54.5	54.5	54.5	54	38.2	1	5	112	0.00	29.967 
05:15	54.5	54.5	54.5	55	38.7	2	7	112	0.00	29.968 
05:20	54.5	54.5	54.5	55	38.7	1	4	135	0.00	29.970 
05:25	54.4	54.4	54.4	55	38.6	1	4	90	0.00	29.971 
05:30	54.4	54.4	54.4	55	38.6	1	4	90	0.00	29.976 
05:35	54.2	54.2	54.2	56	38.8	1	3	90	0.00	29.978 
05:40	54.2	54.2	54.2	57	39.3	1	3	22	0.00	29.979 
05:45	54.2	54.2	54.2	57	39.3	2	4	90	0.00	29.979 
05:50	54.1	54.1	54.1	58	39.7	1	4	68	0.00	29.979 
05:55	54.1	54.1	54.1	58	39.7	1	4	68	0.00	29.980 
06:00	54.1	54.1	54.1	58	39.7	1	4	90	0.00	29.981 
06:05	54.1	54.1	54.1	58	39.7	1	3	112	0.00	29.986 
06:10	53.9	53.9	53.9	58	39.5	0	2	90	0.00	29.986 
06:15	53.9	53.9	53.9	60	40.3	1	4	90	0.00	29.985 
06:20	54.1	54.1	54.1	60	40.5	1	3	112	0.00	29.985 
06:25	54.1	54.1	54.1	60	40.5	1	3	22	0.00	29.985 
06:30	54.1	54.1	54.1	61	41.0	1	6	68	0.00	29.986 
06:35	54.2	54.2	54.2	60	40.6	2	4	68	0.00	29.989 
06:40	54.2	54.2	54.2	61	41.0	1	4	90	0.00	29.988 
06:45	54.2	54.2	54.2	61	41.0	2	5	90	0.00	29.983 
06:50	54.2	54.2	54.2	62	41.5	1	5	112	0.00	29.984 
06:55	54.2	54.2	54.2	61	41.0	2	5	90	0.00	29.987 
07:00	54.2	54.2	54.2	61	41.0	2	6	112	0.00	29.989 
07:05	54.4	54.4	54.4	62	41.7	1	5	112	0.00	29.992 
07:10	54.4	54.4	54.4	62	41.7	3	6	112	0.00	29.989 
07:15	54.2	54.2	54.2	62	41.5	3	7	90	0.00	29.989 
07:20	54.4	54.4	54.4	62	41.7	2	5	90	0.00	29.988 
07:25	54.4	54.4	54.4	63	42.1	2	6	112	0.00	29.992 
07:30	54.4	54.4	54.4	62	41.7	2	6	112	0.00	29.997 
07:35	54.5	54.5	54.5	63	42.2	1	4	90	0.00	29.999 
07:40	54.7	54.7	54.7	63	42.4	2	7	90	0.00	30.000 
07:45	54.7	54.7	54.7	63	42.4	1	4	90	0.00	30.000 
07:50	54.7	54.7	54.7	63	42.4	1	3	90	0.00	30.002 
07:55	54.7	54.7	54.7	63	42.4	1	5	90	0.00	30.001 
08:00	54.7	54.7	54.7	62	41.9	1	4	45	0.00	30.003 
08:05	54.7	54.7	54.7	63	42.4	1	2	90	0.00	30.008 
08:10	54.7	54.7	54.7	63	42.4	1	4	112	0.00	30.013 
08:15	54.7	54.7	54.7	64	42.8	1	5	112	0.00	30.014 
08:20	54.7	54.7	54.7	65	43.2	1	3	90	0.00	30.013 
08:25	54.7	54.7	54.7	64	42.8	1	5	112	0.00	30.013 
08:30	54.7	54.7	54.7	65	43.2	1	6	112	0.00	30.008 
08:35	54.8	54.8	54.8	65	43.3	2	5	112	0.00	30.008 
08:40	54.8	54.8	54.8	66	43.7	2	6	90	0.00	30.006 
08:45	55.0	55.0	55.0	68	44.6	2	5	90	0.00	30.004 
08:50	55.1	55.1	55.1	67	44.3	3	5	90	0.00	30.005 
08:55	55.6	55.6	55.6	69	45.6	2	4	90	0.00	30.005 
09:00	55.7	55.7	55.7	68	45.3	2	6	112	0.00	30.007 
09:05	56.0	56.0	56.0	65	44.4	3	5	112	0.00	30.007 
09:10	56.0	56.0	56.0	67	45.2	3	7	112	0.00	30.008 
09:15	56.2	56.2	56.2	65	44.6	2	5	112	0.00	30.010 
09:20	56.2	56.2	56.2	65	44.6	2	4	112	0.00	30.009 
09:25	56.5	56.5	56.5	65	44.9	2	5	112	0.00	30.009 
09:30	56.6	56.6	56.6	65	45.0	2	6	112	0.00	30.013 
09:35	56.9	56.9	56.9	64	44.8	1	4	68	0.00	30.016 
09:40	57.0	57.0	57.0	62	44.1	2	5	68	0.00	30.017 
09:45	57.0	57.0	57.0	63	44.5	3	6	112	0.00	30.017 
09:50	57.3	57.3	57.3	61	44.0	3	7	112	0.00	30.017 
09:55	57.5	57.5	57.5	62	44.6	2	6	135	0.00	30.015 
10:00	57.8	57.8	57.8	62	44.9	3	9	112	0.00	30.014 
10:05	58.1	58.1	58.1	61	44.7	3	6	90	0.00	30.017 
10:10	58.4	58.4	58.4	61	45.0	2	10	45	0.00	30.023 
10:15	58.6	58.6	58.6	60	44.8	3	7	112	0.00	30.023 
10:20	58.9	58.9	58.9	62	45.9	2	7	112	0.00	30.022 
10:25	59.2	59.2	59.2	61	45.8	4	7	90	0.00	30.019 
10:30	59.9	59.9	59.9	60	46.0	3	10	112	0.00	30.017 
10:35	60.7	60.7	60.7	62	47.6	2	5	45	0.00	30.023 
10:40	61.0	61.0	61.0	59	46.6	2	5	135	0.00	30.023 
10:45	61.5	61.5	61.5	61	47.9	2	5	90	0.00	30.024 
10:50	61.6	61.6	61.6	58	46.7	4	11	112	0.00	30.026 
10:55	61.6	61.6	61.6	56	45.7	4	10	112	0.00	30.027 
11:00	62.0	62.0	62.0	59	47.5	2	6	90	0.00	30.030 
11:05	62.1	62.1	62.1	56	46.2	4	9	112	0.00	30.033 
11:10	62.1	62.1	62.1	58	47.1	3	7	112	0.00	30.031 
11:15	62.1	62.1	62.1	58	47.1	5	10	112	0.00	30.032 
11:20	62.3	62.3	62.3	58	47.3	3	5	90	0.00	30.031 
11:25	62.3	62.3	62.3	58	47.3	3	7	90	0.00	30.032 
11:30	62.3	62.3	62.3	56	46.4	4	11	90	0.00	30.036 
11:35	62.3	62.3	62.3	57	46.9	4	11	112	0.00	30.036 
11:40	62.0	62.0	62.0	57	46.6	6	12	112	0.00	30.038 
11:45	62.0	62.0	62.0	58	47.0	4	12	112	0.00	30.041 
11:50	62.1	62.1	62.1	58	47.1	4	9	112	0.00	30.036 
11:55	62.4	62.4	62.4	58	47.4	4	8	112	0.00	30.033 
12:00	63.1	63.1	63.1	57	47.6	3	7	112	0.00	30.037 
12:05	63.2	63.2	63.2	58	48.2	3	7	112	0.00	30.042 
12:10	63.1	63.1	63.1	55	46.7	4	11	45	0.00	30.042 
12:15	62.6	62.6	62.6	55	46.2	4	11	112	0.00	30.044 
12:20	62.0	62.0	62.0	56	46.1	3	10	90	0.00	30.046 
12:25	61.6	61.6	61.6	57	46.2	3	6	112	0.00	30.046 
12:30	61.6	61.6	61.6	57	46.2	2	7	90	0.00	30.048 
12:35	61.5	61.5	61.5	56	45.7	4	11	90	0.00	30.051 
12:40	61.3	61.3	61.3	56	45.5	4	11	112	0.00	30.046 
12:45	61.6	61.6	61.6	57	46.2	4	9	112	0.00	30.045 
12:50	62.0	62.0	62.0	57	46.6	2	7	45	0.00	30.049 
12:55	61.8	61.8	61.8	56	45.9	4	10	112	0.00	30.051 
13:00	62.0	62.0	62.0	56	46.1	3	7	90	0.00	30.054 
13:05	61.8	61.8	61.8	56	45.9	3	7	90	0.00	30.058 
13:10	61.5	61.5	61.5	55	45.2	4	10	90	0.00	30.058 
13:15	61.3	61.3	61.3	55	45.0	3	9	45	0.00	30.061 
13:20	61.0	61.0	61.0	56	45.2	3	6	112	0.00	30.063 
13:25	60.7	60.7	60.7	55	44.4	3	8	112	0.00	30.066 
13:30	60.4	60.4	60.4	54	43.7	3	9	112	0.00	30.067 
13:35	60.2	60.2	60.2	54	43.5	3	9	112	0.00	30.069 
13:40	60.1	60.1	60.1	55	43.9	3	6	112	0.00	30.074 
13:45	60.1	60.1	60.1	55	43.9	3	9	90	0.00	30.077 
13:50	60.1	60.1	60.1	54	43.4	4	11	112	0.00	30.078 
13:55	59.9	59.9	59.9	54	43.2	3	10	45	0.00	30.078 
14:00	59.9	59.9	59.9	54	43.2	3	7	112	0.00	30.079 
14:05	59.9	59.9	59.9	54	43.2	3	14	68	0.00	30.080 
14:10	60.1	60.1	60.1	55	43.9	2	7	45	0.00	30.084 
14:15	60.1	60.1	60.1	54	43.4	3	7	90	0.00	30.090 
14:20	60.1	60.1	60.1	54	43.4	3	10	112	0.00	30.092 
14:25	60.1	60.1	60.1	54	43.4	3	11	112	0.00	30.095 
14:30	59.9	59.9	59.9	54	43.2	2	5	90	0.00	30.095 
14:35	60.1	60.1	60.1	56	44.3	3	9	90	0.00	30.095 
14:40	60.1	60.1	60.1	55	43.9	2	5	68	0.00	30.095 
14:45	60.1	60.1	60.1	54	43.4	3	9	90	0.00	30.096 
14:50	60.1	60.1	60.1	54	43.4	3	7	90	0.00	30.098 
14:55	60.2	60.2	60.2	54	43.5	3	6	112	0.00	30.101 
15:00	60.2	60.2	60.2	54	43.5	2	7	112	0.00	30.104 
15:05	60.4	60.4	60.4	52	42.7	4	9	90	0.00	30.106 
15:10	60.4	60.4	60.4	53	43.2	3	6	112	0.00	30.107 
15:15	60.4	60.4	60.4	54	43.7	3	10	112	0.00	30.106 
15:20	60.5	60.5	60.5	51	42.3	4	10	112	0.00	30.103 
15:25	60.9	60.9	60.9	51	42.6	5	11	112	0.00	30.103 
15:30	61.0	61.0	61.0	50	42.2	4	9	90	0.00	30.103 
15:35	61.2	61.2	61.2	48	41.3	3	9	112	0.00	30.105 
15:40	61.3	61.3	61.3	48	41.4	4	10	90	0.00	30.107 
15:45	61.3	61.3	61.3	46	40.3	4	11	90	0.00	30.107 
15:50	61.5	61.5	61.5	44	39.4	5	11	112	0.00	30.108 
15:55	61.6	61.6	61.6	43	38.9	6	16	90	0.00	30.109 
16:00	61.6	61.6	61.6	44	39.5	4	14	90	0.00	30.108 
16:05	61.8	61.8	61.8	44	39.7	4	14	112	0.00	30.108 
16:10	61.8	61.8	61.8	44	39.7	5	13	112	0.00	30.109 
16:15	62.0	62.0	62.0	44	39.8	5	12	112	0.00	30.110 
16:20	62.0	62.0	62.0	43	39.2	4	13	112	0.00	30.110 
16:25	62.0	62.0	62.0	42	38.6	6	13	112	0.00	30.111 
16:30	62.1	62.1	62.1	42	38.7	6	12	90	0.00	30.114 
16:35	62.3	62.3	62.3	41	38.3	4	11	90	0.00	30.120 
16:40	62.3	62.3	62.3	41	38.3	4	12	90	0.00	30.121 
16:45	62.3	62.3	62.3	41	38.3	4	11	90	0.00	30.122 
16:50	62.3	62.3	62.3	41	38.3	3	10	112	0.00	30.122 
16:55	62.3	62.3	62.3	40	37.7	4	9	112	0.00	30.119 
17:00	62.1	62.1	62.1	39	36.8	5	12	90	0.00	30.115 
17:05	62.1	62.1	62.1	38	36.2	5	11	112	0.00	30.115 
17:10	62.0	62.0	62.0	40	37.4	4	11	90	0.00	30.114 
17:15	62.0	62.0	62.0	39	36.8	4	11	90	0.00	30.116 
17:20	62.0	62.0	62.0	38	36.1	4	9	90	0.00	30.119 
17:25	62.1	62.1	62.1	35	34.1	4	10	90	0.00	30.120 
17:30	62.1	62.1	62.1	35	34.1	4	7	90	0.00	30.120 
17:35	62.1	62.1	62.1	35	34.1	5	11	90	0.00	30.121 
17:40	62.0	62.0	62.0	34	33.3	4	11	112	0.00	30.120 
17:45	62.0	62.0	62.0	36	34.7	3	6	112	0.00	30.121 
17:50	61.8	61.8	61.8	36	34.6	2	5	112	0.00	30.118 
17:55	61.6	61.6	61.6	38	35.7	2	6	112	0.00	30.113 
18:00	61.5	61.5	61.5	36	34.3	3	7	112	0.00	30.111 
18:05	61.5	61.5	61.5	37	35.0	2	5	112	0.00	30.111 
18:10	61.3	61.3	61.3	39	36.1	2	3	90	0.00	30.112 
18:15	61.2	61.2	61.2	38	35.4	3	10	90	0.00	30.114 
18:20	61.2	61.2	61.2	36	34.0	4	11	90	0.00	30.114 
18:25	61.0	61.0	61.0	36	33.9	3	9	90	0.00	30.116 
18:30	60.9	60.9	60.9	37	34.5	3	10	112	0.00	30.121 
18:35	60.7	60.7	60.7	38	34.9	3	8	112	0.00	30.120 
18:40	60.7	60.7	60.7	37	34.3	3	7	112	0.00	30.119 
18:45	60.5	60.5	60.5	36	33.4	2	6	112	0.00	30.122 
18:50	60.4	60.4	60.4	38	34.7	2	5	90	0.00	30.123 
18:55	60.4	60.4	60.4	39	35.3	2	5	90	0.00	30.127 
19:00	60.2	60.2	60.2	39	35.2	2	7	112	0.00	30.128 
19:05	60.2	60.2	60.2	40	35.8	2	4	90	0.00	30.129 
19:10	60.1	60.1	60.1	39	35.1	2	6	90	0.00	30.131 
19:15	60.1	60.1	60.1	40	35.7	1	4	90	0.00	30.133 
19:20	60.1	60.1	60.1	39	35.1	2	6	112	0.00	30.139 
19:25	59.9	59.9	59.9	42	36.8	2	5	112	0.00	30.139 
19:30	59.8	59.8	59.8	40	35.4	1	4	112	0.00	30.142 
19:35	59.8	59.8	59.8	40	35.4	2	5	112	0.00	30.142 
19:40	59.6	59.6	59.6	41	35.9	1	3	112	0.00	30.143 
19:45	59.6	59.6	59.6	41	35.9	2	4	112	0.00	30.143 
19:50	59.5	59.5	59.5	42	36.4	1	4	90	0.00	30.143 
19:55	59.5	59.5	59.5	43	37.0	2	4	90	0.00	30.142 
20:00	59.3	59.3	59.3	43	36.8	2	5	112	0.00	30.143 
20:05	59.2	59.2	59.2	43	36.7	2	5	112	0.00	30.145 
20:10	59.0	59.0	59.0	43	36.5	2	6	112	0.00	30.147 
20:15	59.0	59.0	59.0	44	37.1	1	4	90	0.00	30.146 
20:20	58.9	58.9	58.9	44	37.0	1	4	90	0.00	30.145 
20:25	58.7	58.7	58.7	44	36.8	1	4	112	0.00	30.148 
20:30	58.6	58.6	58.6	45	37.3	2	4	112	0.00	30.151 
20:35	58.7	58.7	58.7	43	36.3	3	6	90	0.00	30.148 
20:40	58.7	58.7	58.7	43	36.3	3	7	112	0.00	30.148 
20:45	58.7	58.7	58.7	43	36.3	4	14	90	0.00	30.155 
20:50	58.9	58.9	58.9	42	35.9	4	10	90	0.00	30.158 
20:55	59.0	59.0	59.0	41	35.3	5	9	90	0.00	30.161 
21:00	58.9	58.9	58.9	40	34.6	5	13	112	0.00	30.164 
21:05	58.9	58.9	58.9	41	35.2	5	11	112	0.00	30.167 
21:10	58.9	58.9	58.9	41	35.2	5	16	90	0.00	30.170 
21:15	58.7	58.7	58.7	40	34.4	5	12	90	0.00	30.171 
21:20	58.6	58.6	58.6	41	35.0	4	12	90	0.00	30.171 
21:25	58.6	58.6	58.6	40	34.4	6	12	90	0.00	30.172 
21:30	58.6	58.6	58.6	41	35.0	5	10	90	0.00	30.173 
21:35	58.4	58.4	58.4	40	34.2	5	13	112	0.00	30.172 
21:40	58.3	58.3	58.3	42	35.3	4	8	112	0.00	30.177 
21:45	58.3	58.3	58.3	41	34.7	4	12	90	0.00	30.185 
21:50	58.1	58.1	58.1	42	35.1	5	12	90	0.00	30.187 
21:55	58.0	58.0	58.0	41	34.4	5	11	112	0.00	30.186 
22:00	58.0	58.0	58.0	41	34.4	6	11	90	0.00	30.186 
22:05	57.6	57.6	57.6	41	34.1	5	14	112	0.00	30.184 
22:10	57.5	57.5	57.5	43	35.2	5	12	90	0.00	30.185 
22:15	57.3	57.3	57.3	44	35.6	5	10	112	0.00	30.189 
22:20	57.0	57.0	57.0	43	34.7	4	10	112	0.00	30.194 
22:25	56.9	56.9	56.9	45	35.8	4	6	112	0.00	30.201 
22:30	56.7	56.7	56.7	46	36.2	4	10	112	0.00	30.200 
22:35	56.5	56.5	56.5	45	35.4	4	8	112	0.00	30.202 
22:40	56.3	56.3	56.3	46	35.8	4	10	112	0.00	30.204 
22:45	56.2	56.2	56.2	47	36.2	4	10	112	0.00	30.205 
22:50	56.2	56.2	56.2	48	36.8	4	9	112	0.00	30.205 
22:55	56.0	56.0	56.0	49	37.1	3	11	90	0.00	30.209 
23:00	55.7	55.7	55.7	50	37.3	4	11	112	0.00	30.214 
23:05	55.4	55.4	55.4	51	37.6	4	9	90	0.00	30.217 
23:10	55.1	55.1	55.1	52	37.8	3	8	90	0.00	30.218 
23:15	54.8	54.8	54.8	53	38.0	3	7	112	0.00	30.222 
23:20	54.7	54.7	54.7	53	37.9	3	6	112	0.00	30.221 
23:25	54.4	54.4	54.4	54	38.1	3	7	112	0.00	30.227 
23:30	54.1	54.1	54.1	54	37.8	3	7	90	0.00	30.233 
23:35	53.8	53.8	53.8	56	38.5	2	6	112	0.00	30.236 
23:40	53.6	53.6	53.6	57	38.7	3	6	90	0.00	30.238 
23:45	53.3	53.3	53.3	57	38.5	3	9	112	0.00	30.239 
23:50	53.2	53.2	53.2	57	38.4	3	7	90	0.00	30.239 
23:55	53.1	53.1	53.1	57	38.3	3	7	90	0.00	30.242 

CoCoRaHS
IN-AL-39
A2 Web Hosting
Creative Commons License
GoDaddy
Look for:

loaded 2017-10-17 22:34:36 • last modified 2010-11-18 10:43:29
Privacy PolicyDisclaimer
• wx.awcolley.com is powered by PmWiki v.2002016 •
• all content (unless otherwise noted) © 2017 A W Colley